createdAt,value
2022-08-03T08:13:19.852Z,100.00
2022-08-03T08:15:46.783Z,100.00
2022-08-03T08:18:14.233Z,100.00
2022-08-03T08:20:41.190Z,100.00
2022-08-03T08:23:27.636Z,100.00
2022-08-03T08:25:57.196Z,100.00
2022-08-03T08:28:32.718Z,100.00
2022-08-03T08:31:01.327Z,100.00
2022-08-03T08:33:42.204Z,100.00
2022-08-03T08:36:15.701Z,100.00
2022-08-03T08:38:44.721Z,100.00
2022-08-03T08:41:13.033Z,100.00
2022-08-03T08:43:40.744Z,100.00
2022-08-03T08:46:12.131Z,100.00
2022-08-03T08:48:44.146Z,100.00
2022-08-03T08:51:13.862Z,100.00
2022-08-03T08:53:44.575Z,100.00
2022-08-03T08:56:17.642Z,100.00
2022-08-03T08:58:50.106Z,100.00
2022-08-03T09:01:20.469Z,100.00
2022-08-03T09:03:47.984Z,100.00
2022-08-03T09:06:17.758Z,100.00
2022-08-03T09:08:44.652Z,100.00
2022-08-03T09:11:14.049Z,100.00
2022-08-03T09:13:42.372Z,100.00
2022-08-03T09:16:15.314Z,100.00
2022-08-03T09:18:44.247Z,100.00
2022-08-03T09:21:36.533Z,100.00
2022-08-03T09:24:08.486Z,100.00
2022-08-03T09:26:38.470Z,100.00
2022-08-03T09:29:15.392Z,100.00
2022-08-03T09:31:47.233Z,100.00
2022-08-03T09:34:16.337Z,100.00
2022-08-03T09:36:50.714Z,100.00
2022-08-03T09:39:37.459Z,100.00
2022-08-03T09:42:18.920Z,100.00
2022-08-03T09:44:52.313Z,100.00
2022-08-03T09:47:31.698Z,100.00
2022-08-03T09:50:04.322Z,100.00
2022-08-03T09:52:49.963Z,100.00
2022-08-03T09:56:32.995Z,100.00
2022-08-03T09:58:10.878Z,100.00
2022-08-03T10:01:05.354Z,100.00
2022-08-03T10:03:36.212Z,100.00
2022-08-03T10:06:23.024Z,100.00
2022-08-03T10:09:10.544Z,100.00
2022-08-03T10:11:42.406Z,100.00
2022-08-03T10:14:21.070Z,100.00
2022-08-03T10:16:49.165Z,100.00
2022-08-03T10:19:17.178Z,100.00
2022-08-03T10:21:53.595Z,100.00
2022-08-03T10:24:26.575Z,100.00
2022-08-03T10:27:00.538Z,100.00
2022-08-03T10:29:29.224Z,100.00
2022-08-03T10:31:59.652Z,100.00
2022-08-03T10:34:29.257Z,100.00
2022-08-03T10:36:59.323Z,100.00
2022-08-03T10:39:30.727Z,100.00
2022-08-03T10:42:02.641Z,100.00
2022-08-03T10:44:41.426Z,100.00
2022-08-03T10:47:10.754Z,100.00
2022-08-03T10:49:38.477Z,100.00
2022-08-03T10:52:13.040Z,100.00
2022-08-03T10:55:11.883Z,100.00
2022-08-03T10:57:58.206Z,100.00
2022-08-03T11:00:28.397Z,100.00
2022-08-03T11:03:09.168Z,100.00
2022-08-03T11:05:44.066Z,100.00
2022-08-03T11:08:25.753Z,98.99
2022-08-03T11:10:58.614Z,100.00
2022-08-03T11:13:28.657Z,100.00
2022-08-03T11:16:02.445Z,98.40
2022-08-03T11:18:31.971Z,100.00
2022-08-03T11:21:00.704Z,100.00
2022-08-03T11:24:05.398Z,97.95
2022-08-03T11:26:34.285Z,99.66
2022-08-03T11:29:33.675Z,97.08
2022-08-03T11:32:00.629Z,100.00
2022-08-03T11:34:27.530Z,92.02
2022-08-03T11:37:25.220Z,87.54
2022-08-03T11:39:55.150Z,93.23
2022-08-03T11:42:24.989Z,92.41
2022-08-03T11:44:56.621Z,94.61
2022-08-03T11:47:27.216Z,100.00
2022-08-03T11:49:57.735Z,100.00
2022-08-03T11:52:27.250Z,100.00
2022-08-03T11:54:56.466Z,100.00
2022-08-03T11:58:58.315Z,100.00
2022-08-03T12:00:31.389Z,100.00
2022-08-03T12:03:02.626Z,100.00
2022-08-03T12:05:51.325Z,100.00
2022-08-03T12:08:32.407Z,100.00
2022-08-03T12:11:02.121Z,100.00
2022-08-03T12:14:45.506Z,100.00
2022-08-03T12:16:26.069Z,100.00
2022-08-03T12:19:01.593Z,100.00
2022-08-03T12:21:29.228Z,100.00
2022-08-03T12:24:04.919Z,100.00
2022-08-03T12:26:45.121Z,100.00
2022-08-03T12:29:26.410Z,100.00
2022-08-03T12:31:53.451Z,100.00
2022-08-03T12:34:20.400Z,100.00
2022-08-03T12:36:52.623Z,100.00
2022-08-03T12:39:24.083Z,100.00
2022-08-03T12:41:55.717Z,100.00
2022-08-03T12:44:32.254Z,100.00
2022-08-03T12:47:00.521Z,100.00
2022-08-03T12:49:30.475Z,100.00
2022-08-03T12:52:06.855Z,100.00
2022-08-03T12:54:36.207Z,100.00
2022-08-03T12:57:08.584Z,98.52
2022-08-03T12:59:49.894Z,100.00
2022-08-03T13:02:25.301Z,97.35
2022-08-03T13:04:54.100Z,100.00
2022-08-03T13:07:22.315Z,99.93
2022-08-03T13:09:55.347Z,100.00
2022-08-03T13:12:22.247Z,100.00
2022-08-03T13:15:07.519Z,100.00
2022-08-03T13:17:34.410Z,100.00
2022-08-03T13:20:01.270Z,100.00
2022-08-03T13:22:31.272Z,100.00
2022-08-03T13:24:58.377Z,100.00
2022-08-03T13:28:04.796Z,100.00
2022-08-03T13:30:13.519Z,100.00
2022-08-03T13:32:45.285Z,100.00
2022-08-03T13:35:12.832Z,100.00
2022-08-03T13:37:43.571Z,100.00
2022-08-03T13:40:15.691Z,100.00
2022-08-03T13:42:42.739Z,100.00
2022-08-03T13:45:11.428Z,100.00
2022-08-03T13:47:38.407Z,100.00
2022-08-03T13:50:05.734Z,100.00
2022-08-03T13:52:36.105Z,100.00
2022-08-03T13:55:05.399Z,100.00
2022-08-03T13:58:03.732Z,100.00
2022-08-03T14:00:27.680Z,100.00
2022-08-03T14:03:12.236Z,100.00
2022-08-03T14:05:41.054Z,100.00
2022-08-03T14:08:08.404Z,100.00
2022-08-03T14:10:38.727Z,100.00
2022-08-03T14:13:06.308Z,100.00
2022-08-03T14:15:38.213Z,100.00
2022-08-03T14:18:13.020Z,97.78
2022-08-03T14:20:50.088Z,91.92
2022-08-03T14:23:19.158Z,87.96
2022-08-03T14:25:51.660Z,88.37
2022-08-03T14:28:21.486Z,87.18
2022-08-03T14:30:48.795Z,88.54
2022-08-03T14:33:16.044Z,89.07
2022-08-03T14:35:43.462Z,87.74
2022-08-03T14:38:10.347Z,87.86
2022-08-03T14:40:37.351Z,90.12
2022-08-03T14:43:04.547Z,90.59
2022-08-03T14:45:31.494Z,86.94
2022-08-03T14:50:30.922Z,87.34
2022-08-03T14:50:51.298Z,87.77
2022-08-03T14:53:19.218Z,88.20
2022-08-03T14:55:51.278Z,87.90
2022-08-03T14:58:23.582Z,81.70
2022-08-03T15:00:51.891Z,86.29
2022-08-03T15:03:23.402Z,85.55
2022-08-03T15:05:53.015Z,87.29
2022-08-03T15:08:20.183Z,85.07
2022-08-03T15:10:47.228Z,84.82
2022-08-03T15:13:16.778Z,80.94
2022-08-03T15:15:43.735Z,71.17
2022-08-03T15:18:10.715Z,72.09
2022-08-03T15:20:46.366Z,73.48
2022-08-03T15:23:15.193Z,74.18
2022-08-03T15:26:31.813Z,73.15
2022-08-03T15:28:30.302Z,72.96
2022-08-03T15:30:57.597Z,73.97
2022-08-03T15:33:24.807Z,73.75
2022-08-03T15:35:51.950Z,76.90
2022-08-03T15:38:19.207Z,78.80
2022-08-03T15:40:46.190Z,79.95
2022-08-03T15:43:13.095Z,81.61
2022-08-03T15:45:42.052Z,82.09
2022-08-03T15:48:09.095Z,85.70
2022-08-03T15:50:36.087Z,89.09
2022-08-03T15:53:03.646Z,90.59
2022-08-03T15:55:31.308Z,94.86
2022-08-03T15:59:09.104Z,97.25
2022-08-03T16:00:45.418Z,98.45
2022-08-03T16:03:12.252Z,100.00
2022-08-03T16:05:39.368Z,100.00
2022-08-03T16:08:10.271Z,100.00
2022-08-03T16:10:40.801Z,100.00
2022-08-03T16:13:08.798Z,100.00
2022-08-03T16:15:38.479Z,100.00
2022-08-03T16:18:09.040Z,100.00
2022-08-03T16:20:36.037Z,100.00
2022-08-03T16:23:09.124Z,100.00
2022-08-03T16:25:38.526Z,100.00
2022-08-03T16:28:07.811Z,100.00
2022-08-03T16:30:41.511Z,100.00
2022-08-03T16:33:09.810Z,100.00
2022-08-03T16:35:37.266Z,100.00
2022-08-03T16:38:09.585Z,100.00
2022-08-03T16:40:38.475Z,100.00
2022-08-03T16:43:18.275Z,100.00
2022-08-03T16:45:49.351Z,98.24
2022-08-03T16:48:16.876Z,97.35
2022-08-03T16:50:44.590Z,95.08
2022-08-03T16:53:17.011Z,96.67
2022-08-03T16:55:53.534Z,94.28
2022-08-03T16:58:34.448Z,96.97
2022-08-03T17:01:24.043Z,98.93
2022-08-03T17:04:02.564Z,100.00
2022-08-03T17:06:35.449Z,100.00
2022-08-03T17:09:09.249Z,99.78
2022-08-03T17:11:46.898Z,100.00
2022-08-03T17:14:16.791Z,100.00
2022-08-03T17:16:52.492Z,100.00
2022-08-03T17:19:23.438Z,100.00
2022-08-03T17:21:59.891Z,100.00
2022-08-03T17:24:35.244Z,100.00
2022-08-03T17:27:09.273Z,100.00
2022-08-03T17:29:55.850Z,100.00
2022-08-03T17:32:23.373Z,100.00
2022-08-03T17:34:51.273Z,100.00
2022-08-03T17:37:50.744Z,100.00
2022-08-03T17:40:09.959Z,100.00
2022-08-03T17:42:38.426Z,100.00
2022-08-03T17:45:06.476Z,100.00
2022-08-03T17:47:42.229Z,100.00
2022-08-03T17:50:23.439Z,100.00
2022-08-03T17:53:07.901Z,100.00
2022-08-03T17:55:56.319Z,100.00
2022-08-03T17:58:43.696Z,100.00
2022-08-03T18:02:00.275Z,100.00
2022-08-03T18:04:30.068Z,100.00
2022-08-03T18:06:59.637Z,100.00
2022-08-03T18:10:03.667Z,100.00
2022-08-03T18:12:29.325Z,100.00
2022-08-03T18:15:07.729Z,100.00
2022-08-03T18:17:55.905Z,100.00
2022-08-03T18:20:33.134Z,100.00
2022-08-03T18:23:04.860Z,100.00
2022-08-03T18:25:45.502Z,100.00
2022-08-03T18:28:19.167Z,100.00
2022-08-03T18:30:54.121Z,100.00
2022-08-03T18:34:16.857Z,100.00
2022-08-03T18:36:11.557Z,100.00
2022-08-03T18:38:47.674Z,100.00
2022-08-03T18:44:08.694Z,100.00
2022-08-03T18:47:16.542Z,100.00
2022-08-03T18:49:49.601Z,100.00
2022-08-03T18:52:22.067Z,100.00
2022-08-03T18:55:20.303Z,100.00
2022-08-03T18:58:25.841Z,100.00
2022-08-03T19:01:58.069Z,100.00
2022-08-03T19:04:32.596Z,100.00
2022-08-03T19:07:11.189Z,100.00
2022-08-03T19:09:55.871Z,100.00
2022-08-03T19:12:37.191Z,100.00
2022-08-03T19:15:13.024Z,100.00
2022-08-03T19:17:50.292Z,100.00
2022-08-03T19:20:27.071Z,100.00
2022-08-03T19:22:57.599Z,100.00
2022-08-03T19:25:34.261Z,100.00
2022-08-03T19:28:06.019Z,100.00
2022-08-03T19:30:38.909Z,100.00
2022-08-03T19:33:11.198Z,100.00
2022-08-03T19:35:55.591Z,100.00
2022-08-03T19:38:27.591Z,100.00
2022-08-03T19:41:02.661Z,100.00
2022-08-03T19:43:53.210Z,100.00
2022-08-03T19:46:30.260Z,100.00
2022-08-03T19:49:16.101Z,100.00
2022-08-03T19:52:02.451Z,100.00
2022-08-03T19:54:52.923Z,100.00
2022-08-03T19:57:27.426Z,100.00
2022-08-03T19:59:55.863Z,100.00
2022-08-03T20:02:26.293Z,100.00
2022-08-03T20:04:57.225Z,100.00
2022-08-03T20:07:25.601Z,100.00
2022-08-03T20:09:54.612Z,100.00
2022-08-03T20:12:28.361Z,100.00
2022-08-03T20:14:57.761Z,100.00
2022-08-03T20:17:55.440Z,100.00
2022-08-03T20:20:13.762Z,100.00
2022-08-03T20:22:48.285Z,100.00
2022-08-03T20:25:20.835Z,100.00
2022-08-03T20:28:07.808Z,100.00
2022-08-03T20:30:47.520Z,100.00
2022-08-03T20:33:18.664Z,100.00
2022-08-03T20:35:49.315Z,100.00
2022-08-03T20:38:18.948Z,100.00
2022-08-03T20:40:47.396Z,100.00
2022-08-03T20:43:15.253Z,100.00
2022-08-03T20:46:00.771Z,100.00
2022-08-03T20:48:30.446Z,100.00
2022-08-03T20:50:57.484Z,100.00
2022-08-03T20:53:57.292Z,100.00
2022-08-03T20:59:05.579Z,100.00
2022-08-03T21:01:36.257Z,100.00
2022-08-03T21:04:09.347Z,100.00
2022-08-03T21:06:53.367Z,100.00
2022-08-03T21:09:39.731Z,100.00
2022-08-03T21:12:12.942Z,100.00
2022-08-03T21:12:58.869Z,100.00
2022-08-03T21:13:14.253Z,100.00
2022-08-03T21:15:05.223Z,100.00
2022-08-03T21:17:42.008Z,100.00
2022-08-03T21:20:11.657Z,100.00
2022-08-03T21:22:42.700Z,100.00
2022-08-03T21:25:10.577Z,100.00
2022-08-03T21:27:37.717Z,100.00
2022-08-03T21:30:08.651Z,100.00
2022-08-03T21:32:40.293Z,100.00
2022-08-03T21:35:11.610Z,100.00
2022-08-03T21:37:40.340Z,100.00
2022-08-03T21:40:09.242Z,100.00
2022-08-03T21:42:36.075Z,100.00
2022-08-03T21:45:08.712Z,100.00
2022-08-03T21:47:41.339Z,100.00
2022-08-03T21:50:11.359Z,100.00
2022-08-03T21:52:47.069Z,100.00
2022-08-03T21:55:18.630Z,100.00
2022-08-03T21:57:53.402Z,100.00
2022-08-03T22:00:26.321Z,100.00
2022-08-03T22:02:57.156Z,100.00
2022-08-03T22:05:42.549Z,100.00
2022-08-03T22:08:14.557Z,100.00
2022-08-03T22:10:44.563Z,100.00
2022-08-03T22:13:19.498Z,100.00
2022-08-03T22:16:02.890Z,100.00
2022-08-03T22:18:29.970Z,100.00
2022-08-03T22:20:59.230Z,100.00
2022-08-03T22:23:27.092Z,100.00
2022-08-03T22:25:59.985Z,100.00
2022-08-03T22:28:30.193Z,100.00
2022-08-03T22:30:59.151Z,100.00
2022-08-03T22:33:47.851Z,100.00
2022-08-03T22:36:18.855Z,100.00
2022-08-03T22:38:47.731Z,100.00
2022-08-03T22:41:18.763Z,100.00
2022-08-03T22:43:45.699Z,100.00
2022-08-03T22:46:18.692Z,100.00
2022-08-03T22:48:47.537Z,100.00
2022-08-03T22:51:16.221Z,100.00
2022-08-03T22:53:45.270Z,100.00
2022-08-03T22:56:12.874Z,100.00
2022-08-03T22:58:39.820Z,100.00
2022-08-03T23:01:11.732Z,100.00
2022-08-03T23:04:00.662Z,100.00
2022-08-03T23:06:38.289Z,100.00
2022-08-03T23:09:13.790Z,100.00
2022-08-03T23:11:46.084Z,100.00
2022-08-03T23:14:19.349Z,100.00
2022-08-03T23:16:47.642Z,100.00
2022-08-03T23:19:23.965Z,100.00
2022-08-03T23:22:02.210Z,100.00
2022-08-03T23:24:34.109Z,100.00
2022-08-03T23:27:03.935Z,100.00
2022-08-03T23:29:31.692Z,100.00
2022-08-03T23:32:00.885Z,100.00
2022-08-03T23:34:47.297Z,100.00
2022-08-03T23:37:15.727Z,100.00
2022-08-03T23:39:47.683Z,100.00
2022-08-03T23:42:19.541Z,100.00
2022-08-03T23:44:47.266Z,100.00
2022-08-03T23:47:14.766Z,100.00
2022-08-03T23:49:41.910Z,100.00
2022-08-03T23:52:47.824Z,100.00
2022-08-03T23:55:40.712Z,100.00
2022-08-03T23:58:29.071Z,100.00
